createdAt,value
2017-11-29T00:11:36.101Z,3.90
2017-11-29T00:16:36.886Z,3.82
2017-11-29T00:21:37.686Z,3.81
2017-11-29T00:26:38.479Z,3.85
2017-11-29T00:32:03.771Z,3.84
2017-11-29T00:37:04.574Z,3.88
2017-11-29T00:42:05.338Z,3.87
2017-11-29T00:47:26.832Z,3.88
2017-11-29T00:52:27.612Z,3.82
2017-11-29T00:57:28.439Z,3.77
2017-11-29T01:02:29.244Z,3.81
2017-11-29T01:07:30.015Z,3.76
2017-11-29T01:18:06.400Z,3.83
2017-11-29T01:23:07.206Z,3.78
2017-11-29T01:28:07.975Z,3.71
2017-11-29T01:33:08.750Z,3.57
2017-11-29T01:38:09.522Z,3.60
2017-11-29T01:43:10.886Z,3.61
2017-11-29T01:48:11.660Z,3.69
2017-11-29T01:53:12.436Z,3.72
2017-11-29T01:58:13.222Z,3.80
2017-11-29T02:03:13.999Z,3.82
2017-11-29T02:08:23.699Z,3.86
2017-11-29T02:13:24.474Z,3.90
2017-11-29T02:18:25.243Z,3.88
2017-11-29T02:23:32.124Z,3.93
2017-11-29T02:28:32.898Z,3.87
2017-11-29T02:33:33.689Z,3.79
2017-11-29T02:38:34.524Z,3.60
2017-11-29T02:43:57.399Z,3.55
2017-11-29T02:48:58.221Z,3.44
2017-11-29T02:53:59.015Z,3.57
2017-11-29T02:59:17.500Z,3.59
2017-11-29T03:04:18.338Z,3.55
2017-11-29T03:09:19.154Z,3.37
2017-11-29T03:14:19.942Z,3.21
2017-11-29T03:19:20.751Z,3.12
2017-11-29T03:24:21.543Z,3.09
2017-11-29T03:29:22.335Z,3.11
2017-11-29T03:34:23.104Z,3.19
2017-11-29T03:39:23.910Z,3.19
2017-11-29T03:44:24.654Z,3.21
2017-11-29T03:49:25.447Z,3.21
2017-11-29T03:54:26.207Z,3.18
2017-11-29T03:59:32.332Z,3.20
2017-11-29T04:04:33.116Z,3.30
2017-11-29T04:09:34.607Z,3.26
2017-11-29T04:14:35.914Z,3.12
2017-11-29T04:19:37.698Z,3.21
2017-11-29T04:24:38.470Z,3.33
2017-11-29T04:29:39.251Z,3.43
2017-11-29T04:34:40.027Z,3.52
2017-11-29T04:39:40.811Z,3.57
2017-11-29T04:44:41.574Z,3.56
2017-11-29T04:49:42.351Z,3.53
2017-11-29T04:54:43.144Z,3.55
2017-11-29T04:59:43.963Z,3.61
2017-11-29T05:04:44.738Z,3.68
2017-11-29T05:09:45.534Z,3.72
2017-11-29T05:14:46.323Z,3.74
2017-11-29T05:19:51.487Z,3.68
2017-11-29T05:24:52.284Z,3.70
2017-11-29T05:29:53.071Z,3.65
2017-11-29T05:34:57.667Z,3.77
2017-11-29T05:39:58.486Z,3.79
2017-11-29T05:44:59.326Z,3.75
2017-11-29T05:50:00.766Z,3.70
2017-11-29T05:55:01.609Z,3.72
2017-11-29T06:00:02.424Z,3.73
2017-11-29T06:05:03.220Z,3.67
2017-11-29T06:10:04.011Z,3.77
2017-11-29T06:15:04.787Z,3.84
2017-11-29T06:20:22.567Z,3.78
2017-11-29T06:25:23.347Z,3.73
2017-11-29T06:30:24.134Z,3.74
2017-11-29T06:35:33.018Z,3.75
2017-11-29T06:46:02.634Z,3.82
2017-11-29T06:51:10.712Z,3.79
2017-11-29T06:56:11.491Z,3.77
2017-11-29T07:01:33.376Z,3.82
2017-11-29T07:06:37.444Z,3.90
2017-11-29T07:11:38.215Z,3.92
2017-11-29T07:16:38.988Z,3.85
2017-11-29T07:21:39.772Z,3.90
2017-11-29T07:26:50.641Z,4.10
2017-11-29T07:31:51.407Z,4.19
2017-11-29T07:36:57.129Z,4.38
2017-11-29T07:41:57.927Z,4.45
2017-11-29T07:46:58.687Z,4.44
2017-11-29T07:51:59.455Z,4.51
2017-11-29T07:57:00.250Z,4.47
2017-11-29T08:02:15.113Z,4.42
2017-11-29T08:07:15.920Z,4.41
2017-11-29T08:12:33.948Z,4.39
2017-11-29T08:17:55.194Z,4.42
2017-11-29T08:28:24.840Z,4.72
2017-11-29T08:33:43.012Z,4.76
2017-11-29T08:39:03.791Z,4.74
2017-11-29T08:44:10.727Z,4.90
2017-11-29T08:49:11.515Z,5.17
2017-11-29T09:05:17.406Z,5.89
2017-11-29T09:15:59.580Z,6.15
2017-11-29T09:21:01.392Z,5.50
2017-11-29T09:26:16.579Z,4.80
2017-11-29T09:31:17.411Z,4.93
2017-11-29T09:36:18.204Z,5.31
2017-11-29T09:41:19.013Z,5.30
2017-11-29T09:46:41.929Z,5.08
2017-11-29T09:51:42.766Z,5.24
2017-11-29T09:56:43.576Z,5.41
2017-11-29T10:01:44.470Z,5.75
2017-11-29T10:28:38.331Z,6.02
2017-11-29T10:33:39.135Z,5.67
2017-11-29T10:38:52.881Z,5.45
2017-11-29T10:43:59.728Z,5.55
2017-11-29T11:11:03.810Z,6.77
2017-11-29T11:43:48.789Z,6.16
2017-11-29T12:05:13.320Z,6.39
2017-11-29T12:10:14.107Z,6.63
2017-11-29T12:15:14.900Z,6.76
2017-11-29T12:20:15.682Z,6.46
2017-11-29T12:25:27.476Z,6.64
2017-11-29T12:30:28.268Z,6.52
2017-11-29T12:35:32.952Z,6.58
2017-11-29T12:40:33.730Z,6.49
2017-11-29T12:45:37.719Z,6.51
2017-11-29T12:50:50.766Z,6.79
2017-11-29T13:06:55.471Z,6.63
2017-11-29T13:11:58.271Z,6.91
2017-11-29T13:39:12.736Z,6.97
2017-11-29T14:06:18.707Z,6.42
2017-11-29T14:22:18.498Z,6.34
2017-11-29T14:32:46.678Z,6.01
2017-11-29T14:37:47.465Z,5.87
2017-11-29T14:42:48.267Z,5.69
2017-11-29T14:47:52.711Z,5.57
2017-11-29T14:52:53.507Z,5.47
2017-11-29T14:57:54.286Z,5.38
2017-11-29T15:02:55.095Z,5.32
2017-11-29T15:07:59.276Z,5.31
2017-11-29T15:28:52.806Z,5.09
2017-11-29T15:33:53.618Z,5.07
2017-11-29T15:38:54.414Z,5.01
2017-11-29T15:43:55.217Z,4.84
2017-11-29T15:48:56.010Z,4.59
2017-11-29T15:53:56.798Z,4.37
2017-11-29T15:59:01.298Z,4.18
2017-11-29T16:04:02.071Z,4.03
2017-11-29T16:09:02.929Z,4.03
2017-11-29T16:14:03.724Z,4.01
2017-11-29T16:19:04.503Z,3.98
2017-11-29T16:24:05.306Z,3.93
2017-11-29T16:29:06.083Z,3.92
2017-11-29T16:34:06.889Z,4.03
2017-11-29T16:39:07.693Z,3.97
2017-11-29T16:44:08.475Z,3.98
2017-11-29T16:49:09.248Z,3.93
2017-11-29T16:54:10.021Z,3.90
2017-11-29T16:59:10.839Z,3.76
2017-11-29T17:04:11.645Z,3.53
2017-11-29T17:09:12.415Z,3.42
2017-11-29T17:14:13.190Z,3.28
2017-11-29T17:19:13.989Z,3.01
2017-11-29T17:24:14.774Z,2.78
2017-11-29T17:29:15.578Z,2.68
2017-11-29T17:34:16.371Z,2.65
2017-11-29T17:39:17.134Z,2.63
2017-11-29T17:44:21.651Z,2.60
2017-11-29T17:49:22.444Z,2.80
2017-11-29T17:54:23.249Z,2.74
2017-11-29T17:59:24.046Z,2.69
2017-11-29T18:04:24.844Z,2.78
2017-11-29T18:09:25.632Z,2.71
2017-11-29T18:14:26.436Z,2.73
2017-11-29T18:19:27.210Z,2.60
2017-11-29T18:24:28.039Z,2.41
2017-11-29T18:29:28.860Z,2.24
2017-11-29T18:34:29.738Z,2.34
2017-11-29T18:39:30.575Z,2.56
2017-11-29T18:44:31.368Z,2.96
2017-11-29T18:49:32.199Z,3.18
2017-11-29T18:54:33.064Z,3.28
2017-11-29T18:59:34.023Z,3.33
2017-11-29T19:04:35.707Z,3.35
2017-11-29T19:09:37.188Z,3.21
2017-11-29T19:14:38.244Z,3.14
2017-11-29T19:19:39.258Z,3.07
2017-11-29T19:24:40.287Z,3.15
2017-11-29T19:29:41.414Z,3.11
2017-11-29T19:34:42.447Z,3.09
2017-11-29T19:39:47.297Z,3.16
2017-11-29T19:44:48.167Z,3.18
2017-11-29T19:49:48.976Z,3.15
2017-11-29T19:54:49.796Z,3.14
2017-11-29T19:59:50.610Z,3.09
2017-11-29T20:04:51.431Z,3.11
2017-11-29T20:09:52.249Z,3.07
2017-11-29T20:14:53.066Z,3.05
2017-11-29T20:19:53.881Z,3.02
2017-11-29T20:24:54.691Z,3.03
2017-11-29T20:29:55.520Z,3.07
2017-11-29T20:34:56.326Z,2.96
2017-11-29T20:40:04.723Z,2.79
2017-11-29T20:45:05.772Z,2.78
2017-11-29T20:50:06.587Z,2.67
2017-11-29T20:55:07.362Z,2.70
2017-11-29T21:00:08.156Z,2.80
2017-11-29T21:05:08.981Z,2.80
2017-11-29T21:10:09.763Z,2.79
2017-11-29T21:15:10.563Z,2.88
2017-11-29T21:20:11.322Z,2.87
2017-11-29T21:25:12.110Z,2.94
2017-11-29T21:30:12.900Z,3.08
2017-11-29T21:35:13.760Z,3.14
2017-11-29T21:40:14.563Z,3.19
2017-11-29T21:45:15.335Z,3.13
2017-11-29T21:50:16.106Z,3.24
2017-11-29T21:55:16.923Z,3.28
2017-11-29T22:00:17.769Z,3.26
2017-11-29T22:05:18.589Z,3.34
2017-11-29T22:10:19.364Z,3.31
2017-11-29T22:15:20.146Z,3.31
2017-11-29T22:20:20.915Z,3.30
2017-11-29T22:25:21.790Z,3.21
2017-11-29T22:30:22.586Z,3.23
2017-11-29T22:35:23.358Z,3.20
2017-11-29T22:40:24.126Z,3.18
2017-11-29T22:45:25.025Z,3.11
2017-11-29T22:50:27.806Z,3.01
2017-11-29T22:55:28.587Z,3.03
2017-11-29T23:00:29.380Z,2.88
2017-11-29T23:05:30.171Z,2.93
2017-11-29T23:10:34.415Z,2.89
2017-11-29T23:15:38.625Z,2.83
2017-11-29T23:20:39.408Z,2.85
2017-11-29T23:25:40.226Z,2.88
2017-11-29T23:30:40.979Z,2.85
2017-11-29T23:35:41.790Z,2.87
2017-11-29T23:40:42.583Z,2.90
2017-11-29T23:45:43.375Z,2.87
2017-11-29T23:50:44.168Z,2.85
2017-11-29T23:55:45.459Z,2.86
